createdAt,value
2022-09-14T00:47:49.266Z,94628.34
2022-09-14T00:51:33.734Z,94624.63
2022-09-14T00:55:18.756Z,94606.28
2022-09-14T00:59:05.696Z,94610.81
2022-09-14T01:02:49.820Z,94604.69
2022-09-14T01:06:37.788Z,94597.22
2022-09-14T01:10:29.443Z,94600.69
2022-09-14T01:14:18.587Z,94595.63
2022-09-14T01:18:08.371Z,94565.78
2022-09-14T01:21:55.382Z,94565.00
2022-09-14T01:26:01.808Z,94564.19
2022-09-14T01:29:48.794Z,94545.31
2022-09-14T01:33:35.729Z,94546.63
2022-09-14T01:37:23.082Z,94550.34
2022-09-14T01:41:08.764Z,94543.13
2022-09-14T01:44:56.075Z,94541.00
2022-09-14T01:48:41.283Z,94531.41
2022-09-14T01:52:27.327Z,94529.53
2022-09-14T01:56:20.110Z,94525.81
2022-09-14T02:00:09.283Z,94527.69
2022-09-14T02:03:56.736Z,94536.50
2022-09-14T02:07:40.007Z,94537.06
2022-09-14T02:11:22.850Z,94532.81
2022-09-14T02:15:09.641Z,94537.91
2022-09-14T02:18:52.636Z,94533.09
2022-09-14T02:22:35.631Z,94536.81
2022-09-14T02:26:19.001Z,94537.63
2022-09-14T02:30:01.736Z,94541.66
2022-09-14T02:33:52.173Z,94544.31
2022-09-14T02:37:41.774Z,94542.72
2022-09-14T02:41:29.142Z,94534.19
2022-09-14T02:45:19.111Z,94531.56
2022-09-14T02:49:07.691Z,94517.72
2022-09-14T02:52:54.874Z,94511.34
2022-09-14T02:56:38.329Z,94491.63
2022-09-14T03:00:21.234Z,94476.72
2022-09-14T03:04:05.339Z,94472.44
2022-09-14T03:07:47.973Z,94482.53
2022-09-14T03:11:30.684Z,94469.22
2022-09-14T03:15:13.397Z,94476.41
2022-09-14T03:18:56.066Z,94472.16
2022-09-14T03:22:43.086Z,94475.09
2022-09-14T03:26:28.996Z,94481.50
2022-09-14T03:30:12.785Z,94484.44
2022-09-14T03:33:56.774Z,94472.72
2022-09-14T03:37:41.841Z,94473.00
2022-09-14T03:41:25.209Z,94467.94
2022-09-14T03:45:08.953Z,94472.47
2022-09-14T03:48:51.822Z,94465.03
2022-09-14T03:52:34.664Z,94466.38
2022-09-14T03:56:20.321Z,94451.72
2022-09-14T04:00:03.552Z,94452.78
2022-09-14T04:03:46.975Z,94457.03
2022-09-14T04:07:29.789Z,94468.47
2022-09-14T04:11:15.174Z,94468.19
2022-09-14T04:14:59.250Z,94478.81
2022-09-14T04:18:41.918Z,94490.50
2022-09-14T04:22:24.593Z,94493.69
2022-09-14T04:26:12.309Z,94487.31
2022-09-14T04:29:55.206Z,94492.63
2022-09-14T04:33:40.622Z,94490.50
2022-09-14T04:37:23.305Z,94488.91
2022-09-14T04:41:07.539Z,94484.38
2022-09-14T04:44:50.294Z,94478.53
2022-09-14T04:48:35.103Z,94471.31
2022-09-14T04:52:19.381Z,94477.19
2022-09-14T04:56:02.557Z,94469.72
2022-09-14T04:59:45.298Z,94476.09
2022-09-14T05:03:28.052Z,94468.56
2022-09-14T05:07:12.117Z,94469.38
2022-09-14T05:10:57.609Z,94467.50
2022-09-14T05:14:40.355Z,94466.94
2022-09-14T05:18:23.032Z,94463.22
2022-09-14T05:22:07.801Z,94450.41
2022-09-14T05:25:53.816Z,94456.22
2022-09-14T05:29:40.132Z,94456.66
2022-09-14T05:33:23.403Z,94457.69
2022-09-14T05:37:06.174Z,94457.06
2022-09-14T05:40:48.912Z,94445.84
2022-09-14T05:44:31.574Z,94443.13
2022-09-14T05:48:15.820Z,94439.38
2022-09-14T05:51:58.540Z,94441.38
2022-09-14T05:55:43.914Z,94444.81
2022-09-14T05:59:26.712Z,94443.72
2022-09-14T06:03:09.412Z,94455.16
2022-09-14T06:07:17.009Z,94448.16
2022-09-14T06:10:57.991Z,94455.59
2022-09-14T06:14:40.795Z,94467.63
2022-09-14T06:18:23.465Z,94475.19
2022-09-14T06:22:07.523Z,94482.09
2022-09-14T06:25:50.190Z,94476.59
2022-09-14T06:29:32.836Z,94463.25
2022-09-14T06:33:15.487Z,94469.84
2022-09-14T06:36:58.154Z,94479.38
2022-09-14T06:40:52.127Z,94489.19
2022-09-14T06:44:34.887Z,94504.03
2022-09-14T06:48:17.666Z,94502.47
2022-09-14T06:52:00.914Z,94495.00
2022-09-14T06:55:45.404Z,94455.56
2022-09-14T06:59:28.073Z,94453.25
2022-09-14T07:03:10.845Z,94446.91
2022-09-14T07:06:54.202Z,94455.72
2022-09-14T07:10:36.866Z,94451.00
2022-09-14T07:14:21.175Z,94457.47
2022-09-14T07:18:04.292Z,94462.28
2022-09-14T07:21:48.097Z,94475.41
2022-09-14T07:25:30.788Z,94462.28
2022-09-14T07:29:15.026Z,94470.75
2022-09-14T07:32:59.231Z,94462.47
2022-09-14T07:36:42.546Z,94477.56
2022-09-14T07:40:25.819Z,94475.91
2022-09-14T07:44:09.497Z,94485.44
2022-09-14T07:47:52.287Z,94464.66
2022-09-14T07:51:37.062Z,94473.69
2022-09-14T07:55:20.195Z,94473.22
2022-09-14T07:59:30.984Z,94479.84
2022-09-14T08:03:06.650Z,94484.13
2022-09-14T08:06:50.675Z,94489.88
2022-09-14T08:10:36.104Z,94516.00
2022-09-14T08:14:18.803Z,94508.19
2022-09-14T08:18:02.060Z,94515.03
2022-09-14T08:21:47.167Z,94500.47
2022-09-14T08:25:32.133Z,94506.53
2022-09-14T08:29:15.368Z,94506.41
2022-09-14T08:33:01.755Z,94513.16
2022-09-14T08:36:46.223Z,94505.91
2022-09-14T08:40:29.119Z,94503.66
2022-09-14T08:44:18.622Z,94515.94
2022-09-14T08:48:01.448Z,94516.94
2022-09-14T08:51:44.240Z,94516.16
2022-09-14T08:55:33.137Z,94512.16
2022-09-14T08:59:30.712Z,94517.91
2022-09-14T09:03:42.224Z,94526.75
2022-09-14T09:07:32.068Z,94522.22
2022-09-14T09:11:18.026Z,94549.69
2022-09-14T09:15:04.794Z,94540.28
2022-09-14T09:18:51.121Z,94533.88
2022-09-14T09:22:39.582Z,94542.88
2022-09-14T09:26:28.261Z,94542.56
2022-09-14T09:30:15.644Z,94539.50
2022-09-14T09:33:58.573Z,94546.81
2022-09-14T09:37:41.714Z,94556.31
2022-09-14T09:41:26.541Z,94549.19
2022-09-14T09:45:10.289Z,94540.38
2022-09-14T09:48:54.452Z,94561.38
2022-09-14T09:52:37.421Z,94552.03
2022-09-14T09:56:22.417Z,94550.94
2022-09-14T10:00:20.486Z,94554.72
2022-09-14T10:04:17.821Z,94550.69
2022-09-14T10:08:01.865Z,94526.47
2022-09-14T10:11:45.456Z,94509.25
2022-09-14T10:15:30.702Z,94509.28
2022-09-14T10:19:16.486Z,94511.44
2022-09-14T10:23:18.599Z,94492.81
2022-09-14T10:27:01.387Z,94495.84
2022-09-14T10:30:51.136Z,94498.19
2022-09-14T10:34:35.417Z,94519.69
2022-09-14T10:38:32.554Z,94494.06
2022-09-14T10:42:26.497Z,94465.31
2022-09-14T10:46:13.742Z,94465.00
2022-09-14T10:50:08.193Z,94464.19
2022-09-14T10:53:56.892Z,94454.06
2022-09-14T10:57:46.974Z,94460.53
2022-09-14T11:01:39.331Z,94462.28
2022-09-14T11:05:29.328Z,94455.78
2022-09-14T11:09:24.621Z,94453.41
2022-09-14T11:13:48.429Z,94443.59
2022-09-14T11:17:43.532Z,94440.16
2022-09-14T11:21:35.219Z,94428.81
2022-09-14T11:25:20.922Z,94423.28
2022-09-14T11:29:10.487Z,94422.81
2022-09-14T11:32:56.347Z,94417.59
2022-09-14T11:36:44.488Z,94416.16
2022-09-14T11:40:30.340Z,94395.28
2022-09-14T11:44:15.405Z,94407.94
2022-09-14T11:53:13.323Z,94389.66
2022-09-14T11:57:02.369Z,94382.38
2022-09-14T12:05:48.348Z,94401.34
2022-09-14T12:10:01.985Z,94363.66
2022-09-14T12:23:52.459Z,94361.91
2022-09-14T12:27:38.682Z,94366.81
2022-09-14T12:31:40.548Z,94372.50
2022-09-14T12:35:47.319Z,94377.09
2022-09-14T12:39:31.560Z,94391.50
2022-09-14T12:43:52.474Z,94380.72
2022-09-14T12:47:59.550Z,94375.81
2022-09-14T12:51:47.322Z,94385.47
2022-09-14T12:55:45.857Z,94392.75
2022-09-14T12:59:35.211Z,94389.13
2022-09-14T13:03:46.137Z,94371.72
2022-09-14T13:07:31.988Z,94367.34
2022-09-14T13:11:28.540Z,94363.88
2022-09-14T13:15:19.103Z,94369.09
2022-09-14T13:19:04.859Z,94355.78
2022-09-14T13:22:47.521Z,94346.91
2022-09-14T13:26:31.567Z,94348.47
2022-09-14T13:30:22.786Z,94352.47
2022-09-14T13:34:06.038Z,94353.25
2022-09-14T13:37:48.780Z,94331.09
2022-09-14T13:41:31.961Z,94324.28
2022-09-14T13:45:14.785Z,94327.91
2022-09-14T13:48:59.179Z,94324.94
2022-09-14T13:53:01.108Z,94334.13
2022-09-14T13:56:45.448Z,94340.91
2022-09-14T14:00:28.127Z,94328.88
2022-09-14T14:04:25.626Z,94335.53
2022-09-14T14:08:32.440Z,94355.78
2022-09-14T14:12:24.829Z,94360.97
2022-09-14T14:16:16.209Z,94353.53
2022-09-14T14:20:02.137Z,94360.63
2022-09-14T14:24:02.833Z,94345.09
2022-09-14T14:27:48.699Z,94347.41
2022-09-14T14:31:31.621Z,94341.88
2022-09-14T14:35:19.965Z,94338.88
2022-09-14T14:39:02.717Z,94342.16
2022-09-14T14:42:45.754Z,94332.81
2022-09-14T14:46:29.363Z,94351.63
2022-09-14T14:50:17.089Z,94351.25
2022-09-14T14:54:01.287Z,94347.28
2022-09-14T14:57:44.094Z,94351.31
2022-09-14T15:01:26.729Z,94338.22
2022-09-14T15:05:09.757Z,94367.44
2022-09-14T15:08:55.531Z,94355.97
2022-09-14T15:12:39.338Z,94363.44
2022-09-14T15:16:22.090Z,94360.84
2022-09-14T15:20:05.762Z,94361.97
2022-09-14T15:23:49.795Z,94372.94
2022-09-14T15:27:34.214Z,94388.38
2022-09-14T15:31:17.073Z,94390.06
2022-09-14T15:35:00.001Z,94379.97
2022-09-14T15:38:42.750Z,94397.09
2022-09-14T15:42:25.879Z,94419.88
2022-09-14T15:46:10.281Z,94471.59
2022-09-14T15:49:53.357Z,94435.84
2022-09-14T15:53:38.177Z,94444.25
2022-09-14T15:57:20.830Z,94451.72
2022-09-14T16:01:09.757Z,94470.94
2022-09-14T16:04:52.491Z,94440.59
2022-09-14T16:08:36.129Z,94448.25
2022-09-14T16:12:18.818Z,94450.47
2022-09-14T16:16:06.347Z,94449.44
2022-09-14T16:19:51.569Z,94450.09
2022-09-14T16:23:34.778Z,94444.81
2022-09-14T16:27:19.704Z,94432.00
2022-09-14T16:31:09.566Z,94425.06
2022-09-14T16:34:53.833Z,94418.16
2022-09-14T16:38:36.962Z,94406.59
2022-09-14T16:42:20.176Z,94422.00
2022-09-14T16:46:05.215Z,94423.53
2022-09-14T16:49:47.973Z,94419.50
2022-09-14T16:53:34.618Z,94406.66
2022-09-14T16:57:17.401Z,94405.03
2022-09-14T17:01:06.912Z,94390.66
2022-09-14T17:04:49.728Z,94396.34
2022-09-14T17:08:35.338Z,94401.66
2022-09-14T17:12:18.072Z,94403.56
2022-09-14T17:16:05.384Z,94389.16
2022-09-14T17:19:49.944Z,94386.19
2022-09-14T17:23:34.296Z,94386.53
2022-09-14T17:27:18.750Z,94396.97
2022-09-14T17:31:02.456Z,94404.44
2022-09-14T17:34:45.947Z,94405.34
2022-09-14T17:38:30.443Z,94388.09
2022-09-14T17:42:14.500Z,94388.09
2022-09-14T17:45:58.468Z,94395.56
2022-09-14T17:49:41.130Z,94410.72
2022-09-14T17:53:23.869Z,94406.78
2022-09-14T17:57:06.621Z,94401.44
2022-09-14T18:00:50.801Z,94397.53
2022-09-14T18:04:33.468Z,94390.06
2022-09-14T18:08:16.457Z,94394.84
2022-09-14T18:11:59.211Z,94391.63
2022-09-14T18:15:41.892Z,94391.63
2022-09-14T18:19:25.933Z,94389.03
2022-09-14T18:23:08.723Z,94382.34
2022-09-14T18:26:51.807Z,94399.16
2022-09-14T18:30:34.870Z,94390.88
2022-09-14T18:34:18.043Z,94391.63
2022-09-14T18:38:02.096Z,94394.28
2022-09-14T18:41:44.979Z,94380.47
2022-09-14T18:45:27.871Z,94392.47
2022-09-14T18:49:10.609Z,94397.28
2022-09-14T18:52:53.612Z,94404.25
2022-09-14T18:56:41.120Z,94393.88
2022-09-14T19:00:24.017Z,94384.31
2022-09-14T19:04:08.125Z,94387.28
2022-09-14T19:07:52.535Z,94369.97
2022-09-14T19:11:38.117Z,94371.59
2022-09-14T19:15:20.905Z,94373.19
2022-09-14T19:19:03.952Z,94365.47
2022-09-14T19:22:47.953Z,94389.69
2022-09-14T19:26:33.124Z,94388.63
2022-09-14T19:30:17.222Z,94391.28
2022-09-14T19:34:00.665Z,94390.53
2022-09-14T19:37:43.581Z,94394.03
2022-09-14T19:41:26.469Z,94383.94
2022-09-14T19:45:12.265Z,94388.63
2022-09-14T19:48:56.661Z,94402.53
2022-09-14T19:52:39.570Z,94401.53
2022-09-14T19:56:25.375Z,94410.09
2022-09-14T20:00:13.282Z,94409.59
2022-09-14T20:04:00.667Z,94414.34
2022-09-14T20:07:43.656Z,94418.09
2022-09-14T20:11:28.170Z,94419.16
2022-09-14T20:15:11.725Z,94419.69
2022-09-14T20:18:54.800Z,94419.97
2022-09-14T20:22:39.127Z,94427.16
2022-09-14T20:26:21.792Z,94423.97
2022-09-14T20:30:06.907Z,94435.97
2022-09-14T20:33:49.889Z,94429.59
2022-09-14T20:37:32.601Z,94432.53
2022-09-14T20:41:19.850Z,94434.16
2022-09-14T20:45:02.713Z,94429.91
2022-09-14T20:48:45.671Z,94423.78
2022-09-14T20:52:28.465Z,94433.63
2022-09-14T20:56:12.491Z,94444.28
2022-09-14T20:59:57.683Z,94443.75
2022-09-14T21:03:42.303Z,94432.59
2022-09-14T21:07:25.516Z,94421.69
2022-09-14T21:11:10.227Z,94423.03
2022-09-14T21:14:52.977Z,94421.44
2022-09-14T21:18:37.314Z,94423.56
2022-09-14T21:22:20.345Z,94416.34
2022-09-14T21:26:03.613Z,94432.84
2022-09-14T21:29:47.614Z,94437.38
2022-09-14T21:33:30.304Z,94434.72
2022-09-14T21:37:14.330Z,94426.47
2022-09-14T21:40:57.146Z,94429.16
2022-09-14T21:44:39.867Z,94434.72
2022-09-14T21:48:22.518Z,94446.44
2022-09-14T21:52:05.511Z,94449.63
2022-09-14T21:55:49.631Z,94449.06
2022-09-14T21:59:32.403Z,94447.22
2022-09-14T22:03:15.158Z,94459.16
2022-09-14T22:06:59.284Z,94457.59
2022-09-14T22:10:42.130Z,94446.97
2022-09-14T22:14:29.525Z,94445.88
2022-09-14T22:18:12.193Z,94442.13
2022-09-14T22:21:55.249Z,94453.28
2022-09-14T22:25:42.552Z,94468.69
2022-09-14T22:29:26.648Z,94472.69
2022-09-14T22:33:10.225Z,94463.88
2022-09-14T22:36:52.979Z,94470.28
2022-09-14T22:40:35.700Z,94459.63
2022-09-14T22:44:18.478Z,94462.59
2022-09-14T22:48:03.042Z,94462.84
2022-09-14T22:51:45.737Z,94476.72
2022-09-14T22:55:28.482Z,94477.25
2022-09-14T22:59:11.579Z,94474.56
2022-09-14T23:02:54.302Z,94481.00
2022-09-14T23:06:40.470Z,94470.88
2022-09-14T23:10:23.308Z,94475.16
2022-09-14T23:14:06.065Z,94480.50
2022-09-14T23:17:52.014Z,94471.47
2022-09-14T23:21:35.417Z,94476.78
2022-09-14T23:25:19.542Z,94474.94
2022-09-14T23:29:04.739Z,94477.88
2022-09-14T23:32:47.377Z,94469.66
2022-09-14T23:36:30.242Z,94472.59
2022-09-14T23:40:13.044Z,94481.63
2022-09-14T23:43:57.391Z,94477.38
2022-09-14T23:47:40.258Z,94495.44
2022-09-14T23:51:22.947Z,94477.34
2022-09-14T23:55:06.531Z,94478.41
2022-09-14T23:58:49.222Z,94472.03
